Search for airport 
image banner adimage banner adimage banner ad
image banner ad

5D2 - Northwood Muni

Located in Northwood, United States

ICAO - 5D2, IATA -

Data provided by Airmate  

General information

Coordinates: N43°26'56" W93°12'6"
Elevation is 1226 feet MSL.
Magnetic variation is 03° East
View others Airports in Iowa

Operational data

Special qualification required
Current time UTC:
Current local time:
Weather at : KAEL - Albert Lea Muni ( 29 km )
METAR: KAEL 151015Z AUTO 02004KT 10SM CLR 14/09 A3013 RMK AO2
View NOTAMs / SUP AIP / TFR affecting this airport [VIEW]
Communications frequencies: [VIEW]

Runways:

RWY identifierQFULength (ft)Width (ft)SurfaceLDA (ft)
17178°3300100GRASS
35358°3300100GRASS

Airport contact information

Address: Northwood United States

Satellite view of 5D2